Kenton, Tennessee
Current Conditions -  °F | °C
As of 4:55 AM on Sunday 23 Nov 2014 (Local Time) from KUCY Reporting Station
Overcast Overcast  
Wind Chill: 55°   Ceiling: 2100
Heat Index: 55°   Visibility: 10mi
Dew Point: 50°   Wind: 8mph
Humidity: 82%   Direction: 140°SE
Pressure: 29.82"   Gusts: NA
Location:  36.2°N, 89.01°W
Report Text: KUCY 231055Z AUTO 14007KT 10SM OVC021 13/10 A2982 RMK
Loading
Personal Weather Stations






























Interactive Weather Map New forecast layout! Learn more

10-Day Weather Forecast

Advertisements
Track Severe Weather on mobile